MST,Max TemperatureF,Mean TemperatureF,Min TemperatureF,Max Dew PointF,MeanDew PointF,Min DewpointF,Max Humidity, Mean Humidity, Min Humidity, Max Sea Level PressureIn, Mean Sea Level PressureIn, Min Sea Level PressureIn, Max VisibilityMiles, Mean VisibilityMiles, Min VisibilityMiles, Max Wind SpeedMPH, Mean Wind SpeedMPH, Max Gust SpeedMPH,PrecipitationIn, CloudCover, Events, WindDirDegrees
2012-2-1,53,34,16,18,12,8,78,48,20,30.15,30.11,30.07,10,10,10,22,8,30,0.00,0,,291
2012-2-2,56,38,20,24,18,10,78,50,25,30.13,30.07,29.99,10,10,10,16,4,22,0.03,0,,113
2012-2-3,37,34,31,31,29,26,94,88,63,30.25,30.19,30.11,10,3,0,26,14,33,0.04,8,Rain-Snow,13
2012-2-4,36,27,14,27,24,13,91,80,62,30.42,30.38,30.30,10,10,7,23,16,29,0.00,5,Snow,343
2012-2-5,35,20,6,27,13,3,89,80,67,30.41,30.37,30.29,10,10,7,13,6,,0.00,0,,254
2012-2-6,43,24,5,28,19,2,89,77,46,30.26,30.16,30.06,10,9,7,26,5,31,0.00,2,,292
2012-2-7,28,20,13,23,19,10,90,80,66,30.45,30.40,30.31,10,10,4,20,14,25,0.00,7,,23
2012-2-8,28,18,9,21,15,7,93,88,75,30.41,30.27,30.17,10,7,1,16,3,21,0.00,6,,204
2012-2-9,47,26,6,29,16,3,90,71,36,30.16,30.08,30.01,10,10,7,24,7,36,0.00,0,,278
2012-2-10,23,18,12,18,13,6,88,78,67,30.41,30.27,30.18,10,7,1,15,6,16,0.00,5,Snow,18
2012-2-11,14,8,2,4,0,-3,78,69,54,30.58,30.51,30.41,10,10,10,9,4,,0.00,3,Snow,153
2012-2-12,30,20,9,19,13,5,81,74,60,30.31,30.06,29.80,10,10,10,21,11,26,0.00,6,,161
2012-2-13,48,32,17,24,20,14,91,70,33,29.71,29.67,29.63,10,8,1,16,5,23,0.04,3,Snow,326
2012-2-14,47,32,17,31,25,15,91,74,47,29.79,29.74,29.69,10,10,10,12,6,16,0.00,2,,239
2012-2-15,44,36,26,29,23,16,88,65,33,30.09,29.94,29.77,10,10,10,15,8,25,0.00,2,,349
2012-2-16,45,32,18,31,24,15,92,75,47,30.20,30.14,30.05,10,10,5,14,4,16,0.00,3,,239
2012-2-17,48,32,16,27,18,13,92,62,24,30.12,30.07,30.02,10,8,3,15,6,18,0.00,1,,313
2012-2-18,44,32,21,27,23,18,91,74,49,30.18,30.06,29.94,10,10,10,18,4,23,0.00,3,,220
2012-2-19,37,28,19,33,28,16,96,87,76,29.93,29.77,29.59,10,8,1,16,6,22,0.00,6,,147
2012-2-20,37,34,31,35,30,23,94,85,61,29.77,29.59,29.48,10,5,0,32,16,43,0.04,7,Rain-Snow,358
2012-2-21,50,36,21,29,23,17,87,67,36,29.87,29.79,29.68,10,10,10,28,10,38,0.00,1,,266
2012-2-22,49,39,29,37,33,27,90,76,61,29.66,29.58,29.39,10,10,10,15,8,21,0.00,3,Rain,289
2012-2-23,40,34,26,33,24,17,86,62,41,29.95,29.65,29.37,10,10,7,36,22,48,0.00,3,,325
2012-2-24,40,28,15,21,17,11,88,71,29,30.21,30.12,30.00,10,10,10,25,11,34,0.00,1,,292
2012-2-25,56,34,13,23,14,-3,92,46,16,30.19,29.80,29.52,10,10,7,37,9,52,0.00,0,,197
2012-2-26,44,34,23,19,7,-5,80,31,16,30.17,29.92,29.64,10,10,7,41,28,58,0.00,1,,309
2012-2-27,47,27,7,18,13,4,87,62,22,30.33,30.23,30.05,10,10,10,24,8,32,0.00,1,,151
2012-2-28,55,42,27,43,30,21,96,77,52,29.96,29.63,29.35,10,8,0,28,12,38,0.00,7,Fog-Rain-Thunderstorm,87
2012-2-29,51,40,28,21,17,11,73,47,22,29.85,29.78,29.69,10,10,10,31,20,39,0.00,0,,315